Time;durP1;ratioP1;P1;durP2;ratioP2;P2;SDS_P1;SDS_P2;PMS_P1;PMS_P2;Temp;Humidity;BMP_temperature;BMP_pressure;BME280_temperature;BME280_humidity;BME280_pressure;Samples;Min_cycle;Max_cycle;Signal;HPM_P1;HPM_P2
2022/07/08 00:01:15;;;;;;;7.07;3.17;;;16.30;99.90;;;;;;5057361;28;20036;-94
2022/07/08 00:03:43;;;;;;;4.13;3.20;;;16.20;99.90;;;;;;5057627;28;20074;-93
2022/07/08 00:06:08;;;;;;;6.40;3.35;;;16.10;99.90;;;;;;5055106;28;20104;-93
2022/07/08 00:08:35;;;;;;;5.30;2.80;;;16.00;99.90;;;;;;5057886;28;20052;-93
2022/07/08 00:11:00;;;;;;;4.55;3.20;;;16.00;99.90;;;;;;5057957;28;20021;-93
2022/07/08 00:13:26;;;;;;;8.20;3.70;;;16.00;99.90;;;;;;5057317;28;20056;-93
2022/07/08 00:15:52;;;;;;;6.20;3.40;;;15.90;99.90;;;;;;5057771;28;20021;-95
2022/07/08 00:18:17;;;;;;;7.25;3.65;;;15.90;99.90;;;;;;5057136;28;20039;-94
2022/07/08 00:20:43;;;;;;;4.93;3.40;;;15.90;99.90;;;;;;5058057;28;20186;-96
2022/07/08 00:23:09;;;;;;;5.88;3.40;;;15.80;99.90;;;;;;5058363;28;20052;-95
2022/07/08 00:25:35;;;;;;;4.05;3.15;;;15.80;99.90;;;;;;5064085;28;20052;-94
2022/07/08 00:28:00;;;;;;;8.85;3.50;;;15.70;99.90;;;;;;5069780;28;20074;-94
2022/07/08 00:30:26;;;;;;;4.97;3.10;;;15.70;99.90;;;;;;5059523;28;20021;-91
2022/07/08 00:32:52;;;;;;;6.10;2.88;;;15.70;99.90;;;;;;5058117;28;20067;-95
2022/07/08 00:35:18;;;;;;;6.85;3.70;;;15.60;99.90;;;;;;5073711;28;20080;-92
2022/07/08 00:37:43;;;;;;;6.10;3.33;;;15.60;99.90;;;;;;5063504;28;20032;-94
2022/07/08 00:40:11;;;;;;;7.05;3.72;;;15.60;99.90;;;;;;5075666;28;20020;-94
2022/07/08 00:42:37;;;;;;;6.93;3.50;;;15.50;99.90;;;;;;5057365;28;20029;-94
2022/07/08 00:45:03;;;;;;;7.72;3.17;;;15.50;99.90;;;;;;5057280;28;20024;-93
2022/07/08 00:47:29;;;;;;;6.13;3.33;;;15.50;99.90;;;;;;5057074;28;20035;-92
2022/07/08 00:49:55;;;;;;;6.05;3.08;;;15.50;99.90;;;;;;5057525;28;20020;-94
2022/07/08 00:52:21;;;;;;;5.97;3.10;;;15.50;99.90;;;;;;5057998;28;20025;-93
2022/07/08 00:54:48;;;;;;;8.13;3.25;;;15.50;99.90;;;;;;5064484;28;20021;-91
2022/07/08 00:57:15;;;;;;;6.50;3.40;;;15.40;99.90;;;;;;5065403;28;20055;-91
2022/07/08 00:59:41;;;;;;;7.25;3.67;;;15.40;99.90;;;;;;5085896;28;20104;-93
2022/07/08 01:02:07;;;;;;;7.45;3.38;;;15.40;99.90;;;;;;5068968;28;20033;-93
2022/07/08 01:04:35;;;;;;;6.85;3.65;;;15.40;99.90;;;;;;5069114;28;20027;-93
2022/07/08 01:07:01;;;;;;;6.00;3.35;;;15.30;99.90;;;;;;5073610;28;20028;-93
2022/07/08 01:09:27;;;;;;;7.75;3.17;;;15.30;99.90;;;;;;5076431;28;20005;-94
2022/07/08 01:11:53;;;;;;;5.22;3.45;;;15.30;99.90;;;;;;5078743;28;20074;-94
2022/07/08 01:14:19;;;;;;;7.45;2.88;;;15.30;99.90;;;;;;5078820;28;20079;-91
2022/07/08 01:16:45;;;;;;;7.40;3.50;;;15.30;99.90;;;;;;5078832;28;20028;-93
2022/07/08 01:19:10;;;;;;;6.20;3.80;;;15.20;99.90;;;;;;5078296;28;20021;-93
2022/07/08 01:21:36;;;;;;;6.13;3.47;;;15.20;99.90;;;;;;5064333;28;20032;-94
2022/07/08 01:24:02;;;;;;;4.47;3.28;;;15.20;99.90;;;;;;5060743;28;20059;-94
2022/07/08 01:26:28;;;;;;;7.60;3.38;;;15.20;99.90;;;;;;5058908;28;20016;-93
2022/07/08 01:28:55;;;;;;;5.07;3.17;;;15.20;99.90;;;;;;5076988;28;20032;-95
2022/07/08 01:31:22;;;;;;;4.32;2.95;;;15.20;99.90;;;;;;5057623;28;20104;-94
2022/07/08 01:33:48;;;;;;;8.88;3.28;;;15.10;99.90;;;;;;5056331;28;20025;-94
2022/07/08 01:36:13;;;;;;;5.70;3.47;;;15.10;99.90;;;;;;5056470;28;20089;-93
2022/07/08 01:38:39;;;;;;;6.97;3.40;;;15.10;99.90;;;;;;5056532;28;20063;-94
2022/07/08 01:41:05;;;;;;;4.07;2.80;;;15.00;99.90;;;;;;5056666;28;20020;-94
2022/07/08 01:43:31;;;;;;;4.22;3.28;;;15.00;99.90;;;;;;5055998;28;20036;-93
2022/07/08 01:45:56;;;;;;;6.60;2.90;;;15.00;99.90;;;;;;5060450;28;20029;-94
2022/07/08 01:48:22;;;;;;;5.45;3.10;;;14.90;99.90;;;;;;5062399;28;20024;-94
2022/07/08 01:50:48;;;;;;;5.25;2.97;;;14.90;99.90;;;;;;5062759;28;20535;-93
2022/07/08 01:53:13;;;;;;;4.22;3.22;;;14.90;99.90;;;;;;5062255;28;20021;-94
2022/07/08 01:55:39;;;;;;;4.85;2.88;;;14.90;99.90;;;;;;5060312;28;20024;-94
2022/07/08 01:58:05;;;;;;;5.13;2.70;;;14.80;99.90;;;;;;5060284;28;20086;-94
2022/07/08 02:00:31;;;;;;;5.45;3.10;;;14.80;99.90;;;;;;5059988;28;20020;-94
2022/07/08 02:02:57;;;;;;;6.07;3.67;;;14.80;99.90;;;;;;5059834;28;20545;-94
2022/07/08 02:05:23;;;;;;;5.65;3.35;;;14.70;99.90;;;;;;5060204;28;20032;-95
2022/07/08 02:07:49;;;;;;;4.93;3.67;;;14.70;99.90;;;;;;5059725;28;20048;-94
2022/07/08 02:10:15;;;;;;;5.32;3.25;;;14.70;99.90;;;;;;5060075;28;20055;-94
2022/07/08 02:12:41;;;;;;;4.57;3.60;;;14.70;99.90;;;;;;5059909;28;20491;-93
2022/07/08 02:15:08;;;;;;;8.27;3.10;;;14.70;99.90;;;;;;5077487;28;20020;-94
2022/07/08 02:17:36;;;;;;;5.72;3.45;;;14.70;99.90;;;;;;5059628;28;20046;-93
2022/07/08 02:20:13;;;;;;;6.43;3.70;;;14.70;99.90;;;;;;5061118;28;20024;-95
2022/07/08 02:22:40;;;;;;;7.32;3.95;;;14.60;99.90;;;;;;5077552;28;20036;-93
2022/07/08 02:25:07;;;;;;;5.45;3.95;;;14.60;99.90;;;;;;5062406;28;20070;-93
2022/07/08 02:27:33;;;;;;;7.78;3.90;;;14.50;99.90;;;;;;5059591;28;20067;-95
2022/07/08 02:29:59;;;;;;;9.23;3.17;;;14.50;99.90;;;;;;5059279;28;20028;-93
2022/07/08 02:32:24;;;;;;;4.40;3.30;;;14.50;99.90;;;;;;5059285;28;20021;-94
2022/07/08 02:34:50;;;;;;;5.03;3.92;;;14.50;99.90;;;;;;5059231;28;20017;-94
2022/07/08 02:37:16;;;;;;;6.10;3.90;;;14.50;99.90;;;;;;5076685;28;20090;-93
2022/07/08 02:39:42;;;;;;;6.82;3.70;;;14.50;99.90;;;;;;5058896;28;20088;-94
2022/07/08 02:42:09;;;;;;;4.63;3.10;;;14.50;99.90;;;;;;5058710;28;20032;-94
2022/07/08 02:44:36;;;;;;;5.22;3.35;;;14.40;99.90;;;;;;5076517;28;20096;-94
2022/07/08 02:47:03;;;;;;;6.20;3.28;;;14.40;99.90;;;;;;5059027;28;20391;-95
2022/07/08 02:49:29;;;;;;;6.47;3.35;;;14.40;99.90;;;;;;5056428;28;20360;-95
2022/07/08 02:51:54;;;;;;;5.43;3.35;;;14.40;99.90;;;;;;5058858;28;20040;-94
2022/07/08 02:54:20;;;;;;;7.95;3.00;;;14.40;99.90;;;;;;5059237;28;20559;-94
2022/07/08 02:56:46;;;;;;;6.22;3.15;;;14.40;99.90;;;;;;5057882;28;20446;-94
2022/07/08 02:59:11;;;;;;;3.83;2.25;;;14.40;99.90;;;;;;5058953;28;20054;-93
2022/07/08 03:01:37;;;;;;;7.32;2.70;;;14.40;99.90;;;;;;5058832;28;20097;-94
2022/07/08 03:04:03;;;;;;;8.30;3.40;;;14.40;99.90;;;;;;5058848;28;20198;-95
2022/07/08 03:06:29;;;;;;;7.80;3.13;;;14.40;99.90;;;;;;5058683;28;20035;-93
2022/07/08 03:08:54;;;;;;;6.35;2.72;;;14.30;99.90;;;;;;5058829;28;20028;-95
2022/07/08 03:11:20;;;;;;;5.30;2.72;;;14.30;99.90;;;;;;5059055;28;20460;-94
2022/07/08 03:13:46;;;;;;;5.10;2.78;;;14.30;99.90;;;;;;5058915;28;20012;-95
2022/07/08 03:16:11;;;;;;;4.88;3.10;;;14.30;99.90;;;;;;5077292;28;20032;-96
2022/07/08 03:18:37;;;;;;;5.68;3.00;;;14.30;99.90;;;;;;5059187;28;20471;-95
2022/07/08 03:21:03;;;;;;;5.07;2.97;;;14.30;99.90;;;;;;5061031;28;20090;-94
2022/07/08 03:23:31;;;;;;;6.18;3.03;;;14.20;99.90;;;;;;5058038;28;20073;-95
2022/07/08 03:25:57;;;;;;;3.63;2.95;;;14.20;99.90;;;;;;5077648;28;20014;-92
2022/07/08 03:28:22;;;;;;;5.38;3.10;;;14.10;99.90;;;;;;5069045;28;20131;-96
2022/07/08 03:30:48;;;;;;;5.20;2.55;;;14.10;99.90;;;;;;5055499;28;20021;-94
2022/07/08 03:33:14;;;;;;;4.60;2.40;;;14.10;99.90;;;;;;5055674;28;20017;-95
2022/07/08 03:35:39;;;;;;;6.53;3.03;;;14.10;99.90;;;;;;5056322;28;20059;-95
2022/07/08 03:38:05;;;;;;;4.20;2.20;;;14.10;99.90;;;;;;5056077;28;20017;-95
2022/07/08 03:43:16;;;;;;;5.20;2.75;;;14.10;99.90;;;;;;5054977;28;20091;-96
2022/07/08 03:45:42;;;;;;;3.42;2.38;;;14.10;99.90;;;;;;5056158;28;20032;-95
2022/07/08 03:48:08;;;;;;;3.85;2.33;;;14.10;99.90;;;;;;5055804;28;20029;-95
2022/07/08 03:50:34;;;;;;;4.82;3.10;;;14.10;99.90;;;;;;5056016;28;20086;-95
2022/07/08 03:53:00;;;;;;;6.30;2.95;;;14.00;99.90;;;;;;5055132;28;20499;-94
2022/07/08 03:55:25;;;;;;;3.83;2.95;;;14.00;99.90;;;;;;5054787;28;20035;-96
2022/07/08 03:57:52;;;;;;;4.60;2.88;;;13.90;99.90;;;;;;5055329;28;20021;-95
2022/07/08 04:00:19;;;;;;;3.58;2.35;;;13.90;99.90;;;;;;5058038;28;20104;-94
2022/07/08 04:02:45;;;;;;;3.10;2.38;;;13.90;99.90;;;;;;5063150;28;20047;-93
2022/07/08 04:05:12;;;;;;;3.33;2.45;;;13.90;99.90;;;;;;5060112;28;20013;-94
2022/07/08 04:07:39;;;;;;;4.25;2.60;;;13.90;99.90;;;;;;5056480;28;20021;-95
2022/07/08 04:10:05;;;;;;;3.15;2.45;;;13.80;99.90;;;;;;5057243;28;20025;-94
2022/07/08 04:12:31;;;;;;;3.50;2.38;;;13.90;99.90;;;;;;5057716;28;20108;-95
2022/07/08 04:14:57;;;;;;;4.80;2.40;;;13.90;99.90;;;;;;5060329;28;20021;-94
2022/07/08 04:17:22;;;;;;;2.47;2.05;;;13.80;99.90;;;;;;5065078;28;20033;-94
2022/07/08 04:19:48;;;;;;;4.88;2.30;;;13.80;99.90;;;;;;5072994;28;20017;-95
2022/07/08 04:22:14;;;;;;;5.40;2.85;;;13.80;99.90;;;;;;5067077;28;20052;-95
2022/07/08 04:24:39;;;;;;;4.53;2.10;;;13.80;99.90;;;;;;5064314;28;20044;-96
2022/07/08 04:27:05;;;;;;;3.28;2.58;;;13.80;99.90;;;;;;5060063;28;20069;-94
2022/07/08 04:29:31;;;;;;;4.35;2.72;;;13.80;99.90;;;;;;5061747;28;20017;-96
2022/07/08 04:31:56;;;;;;;4.40;2.78;;;13.80;99.90;;;;;;5038501;28;20076;-96
2022/07/08 04:34:22;;;;;;;2.75;2.42;;;13.80;99.90;;;;;;5063189;28;20051;-96
2022/07/08 04:36:48;;;;;;;4.72;2.92;;;13.80;99.90;;;;;;5066364;28;20040;-95
2022/07/08 04:39:14;;;;;;;4.30;2.80;;;13.80;99.90;;;;;;5069051;28;20036;-95
2022/07/08 04:41:40;;;;;;;3.88;2.92;;;13.80;99.90;;;;;;5070942;28;20043;-94
2022/07/08 04:44:06;;;;;;;5.18;2.97;;;13.80;99.90;;;;;;5073868;28;20046;-94
2022/07/08 04:46:31;;;;;;;4.95;3.40;;;13.80;99.90;;;;;;5064297;28;20107;-96
2022/07/08 04:48:57;;;;;;;3.70;2.92;;;13.80;99.90;;;;;;5073005;28;20031;-95
2022/07/08 04:51:23;;;;;;;4.80;3.38;;;13.70;99.90;;;;;;5073239;28;20278;-96
2022/07/08 04:53:49;;;;;;;6.80;3.80;;;13.70;99.90;;;;;;5074329;28;20032;-95
2022/07/08 04:56:15;;;;;;;4.85;3.47;;;13.60;99.90;;;;;;5077701;28;20096;-95
2022/07/08 04:58:41;;;;;;;6.65;3.17;;;13.50;99.90;;;;;;5076591;28;20040;-94
2022/07/08 05:01:07;;;;;;;5.72;3.50;;;13.40;99.90;;;;;;5078409;28;20048;-95
2022/07/08 05:03:32;;;;;;;4.47;3.17;;;13.40;99.90;;;;;;5078433;28;20028;-90
2022/07/08 05:05:58;;;;;;;6.28;2.92;;;13.40;99.90;;;;;;5079845;28;20023;-90
2022/07/08 05:08:24;;;;;;;5.22;3.15;;;13.40;99.90;;;;;;5079331;28;20035;-90
2022/07/08 05:10:49;;;;;;;4.65;2.67;;;13.40;99.90;;;;;;5076701;28;20036;-91
2022/07/08 05:13:18;;;;;;;3.80;2.60;;;13.40;99.90;;;;;;5079711;28;20027;-90
2022/07/08 05:15:44;;;;;;;4.80;3.17;;;13.50;99.90;;;;;;5079117;28;20024;-96
2022/07/08 05:18:11;;;;;;;8.02;2.88;;;13.50;99.90;;;;;;5076556;28;20012;-94
2022/07/08 05:20:37;;;;;;;4.93;2.20;;;13.50;99.90;;;;;;5077872;28;20036;-93
2022/07/08 05:23:03;;;;;;;7.03;3.17;;;13.50;99.90;;;;;;5095730;28;20048;-93
2022/07/08 05:25:29;;;;;;;6.32;3.00;;;13.60;99.90;;;;;;5077425;28;20024;-95
2022/07/08 05:27:55;;;;;;;3.75;2.60;;;13.60;99.90;;;;;;5049994;28;20131;-94
2022/07/08 05:30:21;;;;;;;4.25;3.03;;;13.60;99.90;;;;;;5093504;28;20017;-89
2022/07/08 05:32:46;;;;;;;4.53;2.60;;;13.70;99.90;;;;;;5079629;28;20020;-91
2022/07/08 05:35:13;;;;;;;5.18;2.80;;;13.80;99.90;;;;;;5079692;28;20098;-89
2022/07/08 05:37:40;;;;;;;5.18;2.78;;;13.80;99.90;;;;;;5079675;28;20035;-88
2022/07/08 05:40:08;;;;;;;4.40;2.78;;;13.80;99.90;;;;;;5079623;28;20079;-91
2022/07/08 05:42:34;;;;;;;5.18;2.70;;;13.90;99.90;;;;;;5079002;28;20021;-91
2022/07/08 05:45:00;;;;;;;5.32;2.80;;;13.90;99.90;;;;;;5079190;28;20087;-92
2022/07/08 05:47:25;;;;;;;7.32;3.70;;;14.00;99.90;;;;;;5079190;28;20067;-88
2022/07/08 05:49:51;;;;;;;3.88;3.17;;;13.90;99.90;;;;;;5078405;28;20009;-88
2022/07/08 05:52:18;;;;;;;5.40;3.50;;;13.90;99.90;;;;;;5096101;28;20044;-88
2022/07/08 05:54:45;;;;;;;4.85;3.20;;;14.00;99.90;;;;;;5078433;28;20016;-89
2022/07/08 05:57:15;;;;;;;10.05;3.63;;;13.90;99.90;;;;;;5095429;28;20028;-90
2022/07/08 05:59:42;;;;;;;4.65;2.75;;;14.00;99.90;;;;;;5094406;28;20015;-96
2022/07/08 06:02:08;;;;;;;6.32;3.15;;;14.00;99.90;;;;;;5077150;28;20037;-91
2022/07/08 06:04:33;;;;;;;4.20;2.83;;;14.10;99.90;;;;;;5079344;28;20024;-91
2022/07/08 06:06:59;;;;;;;4.00;2.92;;;14.10;99.90;;;;;;5097176;28;20067;-87
2022/07/08 06:09:25;;;;;;;3.08;2.17;;;14.20;99.90;;;;;;5078029;28;20020;-94
2022/07/08 06:11:51;;;;;;;2.70;2.20;;;14.30;99.90;;;;;;5077736;28;20039;-95
2022/07/08 06:14:17;;;;;;;3.90;2.90;;;14.40;99.90;;;;;;5078358;28;20011;-89
2022/07/08 06:16:43;;;;;;;7.68;3.10;;;14.50;99.90;;;;;;5078921;28;20028;-91
2022/07/08 06:19:10;;;;;;;4.63;3.45;;;14.50;99.90;;;;;;5078341;28;20080;-96
2022/07/08 06:21:35;;;;;;;5.00;2.67;;;14.60;99.90;;;;;;5066915;28;20012;-95
2022/07/08 06:24:01;;;;;;;7.07;3.33;;;14.70;99.90;;;;;;5082544;28;20052;-96
2022/07/08 06:26:27;;;;;;;5.45;3.20;;;14.90;99.90;;;;;;5081239;28;20028;-95
2022/07/08 06:28:53;;;;;;;4.13;3.20;;;15.00;99.90;;;;;;5077654;28;20064;-92
2022/07/08 06:31:19;;;;;;;5.68;3.80;;;15.10;99.90;;;;;;5061284;28;20029;-94
2022/07/08 06:33:44;;;;;;;5.25;3.25;;;15.20;99.90;;;;;;5061455;28;20072;-94
2022/07/08 06:36:10;;;;;;;7.75;3.65;;;15.30;99.90;;;;;;5066701;28;20021;-93
2022/07/08 06:38:36;;;;;;;4.25;3.63;;;15.40;99.90;;;;;;5065491;28;20025;-95
2022/07/08 06:41:02;;;;;;;6.00;3.70;;;15.50;99.90;;;;;;5064441;28;20024;-94
2022/07/08 06:43:27;;;;;;;5.13;3.50;;;15.60;99.90;;;;;;5060720;28;20068;-94
2022/07/08 06:45:53;;;;;;;6.43;4.20;;;15.70;99.90;;;;;;5061127;28;20107;-94
2022/07/08 06:48:19;;;;;;;6.63;4.40;;;15.80;99.90;;;;;;5060449;28;20115;-94
2022/07/08 06:50:44;;;;;;;7.45;4.85;;;15.90;99.90;;;;;;5060858;28;20032;-95
2022/07/08 06:53:11;;;;;;;7.88;4.55;;;15.90;99.90;;;;;;5035791;28;20025;-96
2022/07/08 06:55:37;;;;;;;6.53;4.32;;;16.00;99.90;;;;;;5060375;28;20039;-96
2022/07/08 06:58:03;;;;;;;6.40;4.78;;;16.10;99.90;;;;;;5064561;28;20040;-95
2022/07/08 07:00:30;;;;;;;7.22;4.70;;;16.20;99.90;;;;;;5059143;28;20023;-93
2022/07/08 07:02:56;;;;;;;7.70;4.45;;;16.30;99.90;;;;;;5058422;28;20043;-94
2022/07/08 07:05:22;;;;;;;7.45;4.47;;;16.40;99.90;;;;;;5058338;28;20470;-94
2022/07/08 07:07:48;;;;;;;6.93;4.88;;;16.50;99.90;;;;;;5077527;28;20683;-92
2022/07/08 07:10:14;;;;;;;8.15;4.80;;;16.60;99.90;;;;;;5043006;28;20032;-94
2022/07/08 07:12:40;;;;;;;4.25;3.50;;;16.70;99.90;;;;;;5038307;28;20033;-94
2022/07/08 07:15:09;;;;;;;8.30;4.47;;;16.80;99.90;;;;;;5061807;28;20090;-94
2022/07/08 07:17:35;;;;;;;6.68;4.47;;;16.90;99.90;;;;;;5062336;28;20099;-94
2022/07/08 07:20:01;;;;;;;5.43;4.35;;;16.90;99.90;;;;;;5065911;28;20111;-93
2022/07/08 07:22:27;;;;;;;8.40;4.28;;;17.00;99.90;;;;;;5069058;28;20102;-95
2022/07/08 07:24:52;;;;;;;9.25;4.15;;;17.10;99.90;;;;;;5063944;28;20024;-93
2022/07/08 07:27:18;;;;;;;7.80;4.63;;;17.10;99.90;;;;;;5043995;28;20060;-94
2022/07/08 07:29:44;;;;;;;7.30;5.00;;;17.20;99.90;;;;;;5061144;28;20028;-95
2022/07/08 07:32:10;;;;;;;7.00;4.57;;;17.30;99.90;;;;;;5061740;28;20082;-93
2022/07/08 07:34:36;;;;;;;12.63;4.63;;;17.40;99.90;;;;;;5059453;28;20111;-94
2022/07/08 07:37:02;;;;;;;7.03;4.53;;;17.40;99.90;;;;;;5058158;28;20050;-92
2022/07/08 07:39:27;;;;;;;6.38;4.30;;;17.50;99.90;;;;;;5060972;28;20036;-94
2022/07/08 07:41:53;;;;;;;7.13;4.55;;;17.60;99.90;;;;;;5057831;28;20043;-93
2022/07/08 07:44:19;;;;;;;5.15;4.18;;;17.70;99.90;;;;;;5059310;28;20035;-94
2022/07/08 07:46:44;;;;;;;8.80;4.38;;;17.80;99.90;;;;;;5063510;28;20025;-93
2022/07/08 07:49:13;;;;;;;8.40;4.47;;;17.80;99.90;;;;;;5063876;28;20066;-94
2022/07/08 07:51:38;;;;;;;9.23;4.47;;;17.90;99.90;;;;;;5067359;28;20090;-94
2022/07/08 07:54:04;;;;;;;6.20;4.40;;;18.00;99.90;;;;;;5064709;28;20025;-93
2022/07/08 07:56:30;;;;;;;7.53;3.95;;;18.10;99.90;;;;;;5073726;28;20016;-94
2022/07/08 07:58:56;;;;;;;6.65;4.13;;;18.20;99.90;;;;;;5079417;28;20051;-92
2022/07/08 08:01:21;;;;;;;7.93;3.92;;;18.40;99.90;;;;;;5079668;28;20055;-90
2022/07/08 08:03:47;;;;;;;7.55;4.50;;;18.50;99.90;;;;;;5095340;28;20015;-94
2022/07/08 08:06:13;;;;;;;5.75;4.40;;;18.60;99.90;;;;;;5072529;28;20028;-94
2022/07/08 08:08:38;;;;;;;9.48;4.65;;;18.70;99.90;;;;;;5069105;28;20028;-95
2022/07/08 08:11:04;;;;;;;4.45;3.50;;;18.80;99.90;;;;;;5071497;28;20009;-93
2022/07/08 08:13:30;;;;;;;5.97;3.90;;;18.90;99.90;;;;;;5073516;28;20088;-93
2022/07/08 08:15:56;;;;;;;5.50;4.38;;;19.10;99.90;;;;;;5063745;28;20069;-96
2022/07/08 08:18:22;;;;;;;8.27;3.85;;;19.20;99.90;;;;;;5079402;28;20209;-93
2022/07/08 08:20:48;;;;;;;7.68;4.30;;;19.30;99.90;;;;;;5057920;28;20024;-94
2022/07/08 08:23:16;;;;;;;6.85;4.90;;;19.40;99.90;;;;;;5061616;28;20082;-93
2022/07/08 08:25:42;;;;;;;13.05;4.88;;;19.50;99.90;;;;;;5059391;28;20039;-93
2022/07/08 08:28:08;;;;;;;8.65;4.15;;;19.60;99.90;;;;;;5058777;28;20031;-92
2022/07/08 08:30:33;;;;;;;7.70;3.63;;;19.60;99.90;;;;;;5058291;28;20029;-92
2022/07/08 08:32:59;;;;;;;7.18;2.97;;;19.70;99.90;;;;;;5075219;28;20031;-94
2022/07/08 08:35:25;;;;;;;5.13;2.95;;;19.70;99.90;;;;;;5075925;28;20016;-92
2022/07/08 08:37:52;;;;;;;4.10;2.50;;;19.70;99.90;;;;;;5058139;28;20450;-92
2022/07/08 08:40:21;;;;;;;3.50;2.85;;;19.70;99.90;;;;;;5057404;28;20024;-93
2022/07/08 08:42:46;;;;;;;4.20;2.58;;;19.60;99.90;;;;;;5075680;28;20499;-92
2022/07/08 08:45:15;;;;;;;3.72;2.45;;;19.70;99.90;;;;;;5064510;28;20054;-96
2022/07/08 08:47:45;;;;;;;3.97;2.20;;;19.60;99.90;;;;;;5077359;28;20020;-93
2022/07/08 08:52:58;;;;;;;3.28;1.90;;;19.80;99.90;;;;;;5076631;28;20111;-95
2022/07/08 08:55:29;;;;;;;2.83;1.92;;;19.90;99.90;;;;;;5059975;28;20051;-95
2022/07/08 08:57:57;;;;;;;3.70;2.03;;;20.00;99.90;;;;;;5058637;28;20043;-93
2022/07/08 09:00:25;;;;;;;4.68;2.47;;;20.00;99.90;;;;;;5058372;28;20044;-92
2022/07/08 09:02:54;;;;;;;2.92;1.80;;;20.10;99.90;;;;;;5076640;28;20134;-95
2022/07/08 09:05:21;;;;;;;2.70;1.67;;;20.10;99.90;;;;;;5071153;28;20073;-91
2022/07/08 09:07:48;;;;;;;2.40;2.08;;;20.10;99.90;;;;;;5074408;28;20044;-93
2022/07/08 09:10:15;;;;;;;3.70;2.40;;;20.30;99.90;;;;;;5058496;28;20027;-92
2022/07/08 09:13:05;;;;;;;2.58;2.13;;;20.30;99.90;;;;;;5042270;28;20035;-95
2022/07/08 09:15:43;;;;;;;11.30;3.05;;;20.40;99.90;;;;;;5058038;28;20086;-95
2022/07/08 09:18:14;;;;;;;9.98;2.90;;;20.40;99.90;;;;;;5058438;28;20036;-94
2022/07/08 09:20:40;;;;;;;;;;;20.50;99.90;;;;;;5073733;28;20041;-92
2022/07/08 09:23:20;;;;;;;5.10;2.60;;;20.60;99.90;;;;;;5057191;28;19917;-94
2022/07/08 09:25:51;;;;;;;;;;;20.70;99.90;;;;;;5056740;28;20041;-95
2022/07/08 09:28:36;;;;;;;7.77;3.00;;;20.70;99.90;;;;;;5060143;28;19915;-95
2022/07/08 09:31:05;;;;;;;4.07;2.55;;;20.80;99.90;;;;;;5054131;28;20108;-96
2022/07/08 09:33:32;;;;;;;4.13;3.72;;;20.80;99.90;;;;;;5060831;28;20028;-96
2022/07/08 09:36:02;;;;;;;3.42;2.72;;;20.90;99.90;;;;;;5059757;28;20033;-94
2022/07/08 09:38:35;;;;;;;15.65;2.85;;;21.00;99.80;;;;;;5057927;28;20096;-95
2022/07/08 09:41:02;;;;;;;5.88;2.92;;;21.20;99.50;;;;;;5057343;28;20024;-95
2022/07/08 09:43:28;;;;;;;6.57;2.88;;;21.40;98.70;;;;;;5065397;28;20054;-94
2022/07/08 09:45:54;;;;;;;3.47;2.40;;;21.50;97.60;;;;;;5056432;28;20025;-94
2022/07/08 09:48:24;;;;;;;3.42;2.20;;;21.60;97.60;;;;;;5056387;28;20111;-95
2022/07/08 09:50:50;;;;;;;3.20;1.92;;;21.70;96.10;;;;;;5072838;28;20027;-93
2022/07/08 09:53:24;;;;;;;4.70;2.10;;;21.80;95.00;;;;;;5059209;28;20028;-94
2022/07/08 09:55:52;;;;;;;3.42;1.80;;;21.90;94.20;;;;;;5060703;28;20021;-94
2022/07/08 09:58:23;;;;;;;3.47;2.00;;;22.00;93.60;;;;;;5053115;28;20295;-94
2022/07/08 10:00:53;;;;;;;6.78;2.13;;;22.10;93.40;;;;;;5073899;28;20090;-94
2022/07/08 10:03:20;;;;;;;2.70;2.00;;;22.10;92.50;;;;;;5055930;28;20040;-94
2022/07/08 10:05:47;;;;;;;2.35;1.67;;;22.20;92.00;;;;;;5061829;28;20017;-94
2022/07/08 10:08:14;;;;;;;2.20;1.70;;;22.20;91.90;;;;;;5066775;28;20025;-94
2022/07/08 10:10:41;;;;;;;4.40;1.83;;;22.40;91.50;;;;;;5055433;28;20025;-94
2022/07/08 10:13:07;;;;;;;1.95;1.75;;;22.40;91.10;;;;;;5071979;28;20017;-96
2022/07/08 10:15:36;;;;;;;4.63;2.20;;;22.50;91.00;;;;;;5060892;28;20024;-94
2022/07/08 10:18:22;;;;;;;2.75;1.83;;;22.60;90.90;;;;;;5040017;28;20116;-93
2022/07/08 10:20:55;;;;;;;3.67;1.48;;;22.80;90.00;;;;;;5065886;28;20031;-96
2022/07/08 10:23:39;;;;;;;2.22;1.35;;;22.80;88.40;;;;;;5063931;28;20032;-93
2022/07/08 10:26:07;;;;;;;2.35;1.70;;;22.90;87.30;;;;;;5060795;28;20036;-95
2022/07/08 10:28:44;;;;;;;3.17;1.48;;;23.00;85.30;;;;;;5060947;28;20040;-95
2022/07/08 10:31:22;;;;;;;4.57;1.83;;;23.00;84.90;;;;;;5065061;28;20025;-96
2022/07/08 10:33:50;;;;;;;2.25;1.60;;;23.10;84.70;;;;;;5062000;28;20020;-95
2022/07/08 10:36:23;;;;;;;2.83;1.90;;;23.10;84.30;;;;;;5063161;28;20017;-94
2022/07/08 10:38:50;;;;;;;4.70;2.10;;;23.30;84.20;;;;;;5080633;28;20020;-94
2022/07/08 10:41:26;;;;;;;2.78;1.77;;;23.50;83.80;;;;;;5074512;28;20016;-94
2022/07/08 10:43:54;;;;;;;3.50;1.67;;;23.80;82.60;;;;;;5063403;28;20028;-92
2022/07/08 10:46:21;;;;;;;2.65;1.33;;;23.80;81.20;;;;;;5058850;28;20013;-94
2022/07/08 10:48:58;;;;;;;2.63;1.35;;;24.00;80.40;;;;;;5058876;28;20085;-93
2022/07/08 10:51:24;;;;;;;2.40;1.60;;;24.00;78.60;;;;;;5054355;28;20045;-93
2022/07/08 10:53:54;;;;;;;1.98;1.33;;;24.10;78.00;;;;;;5062324;28;20755;-94
2022/07/08 10:56:47;;;;;;;4.47;1.83;;;24.00;77.10;;;;;;5058650;28;20047;-93
2022/07/08 10:59:32;;;;;;;1.80;1.40;;;23.90;77.10;;;;;;5068510;28;20040;-94
2022/07/08 11:02:09;;;;;;;2.33;1.48;;;24.00;76.70;;;;;;5054118;28;20210;-94
2022/07/08 11:04:38;;;;;;;4.00;1.58;;;24.00;76.40;;;;;;5062871;28;20027;-93
2022/07/08 11:10:08;;;;;;;2.50;1.55;;;24.20;76.30;;;;;;5075967;28;20107;-93
2022/07/08 11:12:37;;;;;;;4.30;1.63;;;24.40;75.50;;;;;;5060499;28;20048;-93
2022/07/08 11:15:17;;;;;;;3.72;1.73;;;24.40;75.00;;;;;;5067741;28;20028;-94
2022/07/08 11:17:46;;;;;;;3.80;1.52;;;24.60;74.50;;;;;;5059583;28;20123;-94
2022/07/08 11:20:18;;;;;;;2.00;1.60;;;24.60;73.10;;;;;;5059051;28;20032;-91
2022/07/08 11:22:45;;;;;;;2.38;1.65;;;24.70;73.00;;;;;;5060154;28;20121;-92
2022/07/08 11:25:16;;;;;;;1.92;1.30;;;24.90;72.70;;;;;;5035163;28;20476;-93
2022/07/08 11:27:42;;;;;;;2.45;1.50;;;25.10;72.20;;;;;;5036250;28;20112;-93
2022/07/08 11:30:14;;;;;;;3.65;1.70;;;25.30;71.70;;;;;;5039314;28;20059;-94
2022/07/08 11:32:41;;;;;;;1.70;1.30;;;25.60;70.60;;;;;;5036535;28;20503;-96
2022/07/08 11:35:08;;;;;;;4.50;1.45;;;25.50;70.30;;;;;;5036122;28;20025;-94
2022/07/08 11:37:44;;;;;;;3.55;1.50;;;25.40;69.60;;;;;;5034194;28;20086;-95
2022/07/08 11:40:12;;;;;;;1.92;1.55;;;25.40;69.60;;;;;;5031596;28;20025;-92
2022/07/08 11:42:39;;;;;;;3.63;1.38;;;25.50;69.20;;;;;;5034404;28;20063;-93
2022/07/08 11:45:07;;;;;;;2.50;1.50;;;25.50;68.80;;;;;;5040763;28;20503;-94
2022/07/08 11:47:33;;;;;;;3.92;1.42;;;25.60;67.90;;;;;;5036699;28;20102;-94
2022/07/08 11:49:59;;;;;;;2.95;1.30;;;25.50;67.30;;;;;;5038971;28;20101;-91
2022/07/08 11:52:27;;;;;;;2.45;1.20;;;25.40;66.60;;;;;;5018583;28;20123;-94
2022/07/08 11:54:54;;;;;;;2.97;1.50;;;25.30;66.80;;;;;;5015825;28;20117;-93
2022/07/08 11:57:19;;;;;;;4.10;1.50;;;25.30;66.80;;;;;;5015640;28;20120;-93
2022/07/08 11:59:47;;;;;;;3.05;1.27;;;25.40;66.60;;;;;;5030991;28;20056;-95
2022/07/08 12:02:16;;;;;;;1.45;1.13;;;25.70;67.10;;;;;;5050786;28;20029;-92
2022/07/08 12:04:46;;;;;;;2.15;1.08;;;25.80;66.30;;;;;;5057119;28;20028;-89
2022/07/08 12:07:22;;;;;;;;;;;25.70;65.90;;;;;;5062879;28;20051;-92
2022/07/08 12:10:03;;;;;;;1.52;1.10;;;25.70;66.20;;;;;;5051497;28;19909;-92
2022/07/08 12:12:32;;;;;;;2.67;1.50;;;25.70;66.20;;;;;;5039827;28;20037;-94
2022/07/08 12:15:14;;;;;;;1.33;1.10;;;25.70;66.30;;;;;;5035156;28;20029;-92
2022/07/08 12:17:39;;;;;;;2.50;1.08;;;25.90;66.20;;;;;;5034615;28;20084;-92
2022/07/08 12:20:06;;;;;;;3.50;1.30;;;26.00;66.10;;;;;;5033639;28;20045;-93
2022/07/08 12:22:44;;;;;;;2.90;1.42;;;25.80;66.00;;;;;;5038917;28;20455;-92
2022/07/08 12:25:10;;;;;;;4.28;1.25;;;25.70;66.30;;;;;;5054086;28;20033;-91
2022/07/08 12:27:36;;;;;;;3.38;1.00;;;25.70;66.50;;;;;;5054661;28;20027;-93
2022/07/08 12:30:04;;;;;;;3.28;1.58;;;25.90;66.80;;;;;;5052664;28;20033;-95
2022/07/08 12:32:41;;;;;;;2.17;1.20;;;26.10;66.50;;;;;;5054799;28;20079;-93
2022/07/08 12:35:08;;;;;;;3.40;1.30;;;26.20;65.90;;;;;;5053692;28;20111;-92
2022/07/08 12:37:34;;;;;;;3.95;1.20;;;26.40;64.90;;;;;;5053405;28;20048;-92
2022/07/08 12:40:13;;;;;;;3.20;1.30;;;26.50;65.00;;;;;;5055869;28;20387;-92
2022/07/08 12:42:39;;;;;;;2.55;1.13;;;26.60;64.70;;;;;;5057682;28;20036;-94
2022/07/08 12:45:16;;;;;;;3.80;1.50;;;26.60;64.40;;;;;;5056267;28;20032;-93
2022/07/08 12:47:43;;;;;;;3.22;1.40;;;26.60;64.20;;;;;;5056444;28;20072;-91
2022/07/08 12:50:09;;;;;;;4.03;1.40;;;26.80;64.00;;;;;;5053782;28;20021;-93
2022/07/08 12:52:35;;;;;;;4.38;1.30;;;26.90;63.60;;;;;;5059247;28;20025;-92
2022/07/08 12:55:02;;;;;;;2.53;1.33;;;27.00;63.40;;;;;;5054244;28;20041;-91
2022/07/08 12:57:27;;;;;;;3.50;1.27;;;27.10;63.00;;;;;;5055332;28;20503;-93